ADDS METAR Data INFO
IDs: Format: Raw Decoded Include TAF

Data at: 0340 UTC 24 Feb 2017

METAR for:KSAT (San Antonio Intl, TX, US)
Text:KSAT 240251Z 12009KT 10SM CLR 21/16 A2963 RMK AO2 SLP018 T02110161 53022
Temperature: 21.1°C ( 70°F)
Dewpoint: 16.1°C ( 61°F) [RH = 73%]
Pressure (altimeter):29.63 inches Hg (1003.5 mb) [Sea level pressure: 1001.8 mb]
Winds:from the ESE (120 degrees) at 10 MPH (9 knots; 4.6 m/s)
Visibility:10 or more sm (16+ km)
Ceiling:at least 12,000 feet AGL
Clouds:sky clear below 12,000 feet AGL


Page loaded:  03:40 UTC  |   07:40 PM Pacific  |   08:40 PM Mountain  |   09:40 PM Central  |   10:40 PM Eastern

 

ADVISORIES

FORECASTS

FORECASTS

OBSERVATIONS

USER TOOLS

ABOUT US